createdAt,value
2018-07-27T00:01:08.300Z,5.95
2018-07-27T00:03:37.404Z,5.47
2018-07-27T00:06:06.862Z,5.42
2018-07-27T00:08:36.372Z,5.90
2018-07-27T00:11:05.600Z,6.20
2018-07-27T00:13:34.610Z,6.65
2018-07-27T00:16:03.700Z,6.17
2018-07-27T00:18:32.801Z,6.20
2018-07-27T00:21:01.891Z,6.08
2018-07-27T00:23:31.001Z,6.58
2018-07-27T00:26:00.085Z,5.92
2018-07-27T00:28:29.501Z,6.60
2018-07-27T00:30:58.680Z,6.55
2018-07-27T00:33:27.780Z,6.65
2018-07-27T00:35:56.881Z,5.85
2018-07-27T00:38:25.971Z,6.17
2018-07-27T00:40:55.065Z,5.55
2018-07-27T00:43:24.160Z,6.58
2018-07-27T00:45:53.289Z,6.15
2018-07-27T00:48:22.350Z,5.35
2018-07-27T00:50:51.451Z,6.95
2018-07-27T00:53:20.882Z,6.12
2018-07-27T00:55:50.375Z,6.45
2018-07-27T00:58:19.873Z,5.90
2018-07-27T01:00:49.064Z,6.53
2018-07-27T01:03:18.165Z,5.72
2018-07-27T01:05:47.244Z,6.85
2018-07-27T01:08:16.712Z,6.33
2018-07-27T01:10:45.864Z,6.87
2018-07-27T01:13:14.945Z,5.97
2018-07-27T01:15:44.044Z,5.67
2018-07-27T01:18:13.136Z,6.35
2018-07-27T01:20:42.136Z,6.58
2018-07-27T01:23:11.337Z,6.15
2018-07-27T01:25:40.420Z,6.10
2018-07-27T01:28:09.891Z,6.17
2018-07-27T01:30:39.393Z,7.90
2018-07-27T01:33:08.580Z,6.60
2018-07-27T01:35:37.629Z,6.37
2018-07-27T01:38:07.136Z,6.83
2018-07-27T01:40:35.969Z,6.58
2018-07-27T01:43:05.214Z,7.53
2018-07-27T01:45:34.421Z,6.70
2018-07-27T01:48:03.513Z,6.70
2018-07-27T01:50:32.665Z,6.70
2018-07-27T01:53:01.718Z,6.47
2018-07-27T01:55:30.810Z,7.25
2018-07-27T01:57:59.896Z,6.85
2018-07-27T02:00:28.997Z,6.55
2018-07-27T02:02:58.094Z,6.80
2018-07-27T02:05:27.189Z,7.60
2018-07-27T02:07:56.708Z,7.12
2018-07-27T02:10:25.792Z,7.58
2018-07-27T02:12:54.901Z,7.00
2018-07-27T02:15:23.986Z,6.92
2018-07-27T02:17:53.364Z,7.40
2018-07-27T02:20:22.584Z,7.85
2018-07-27T02:22:51.681Z,7.97
2018-07-27T02:25:21.045Z,6.90
2018-07-27T02:27:49.820Z,8.90
2018-07-27T02:30:18.966Z,7.03
2018-07-27T02:32:48.062Z,7.40
2018-07-27T02:35:17.164Z,8.00
2018-07-27T02:37:46.249Z,6.08
2018-07-27T02:40:15.345Z,8.10
2018-07-27T02:42:44.485Z,6.78
2018-07-27T02:45:13.797Z,7.87
2018-07-27T02:47:47.545Z,8.20
2018-07-27T02:50:16.645Z,7.20
2018-07-27T02:52:46.106Z,8.23
2018-07-27T02:55:15.097Z,7.20
2018-07-27T02:57:44.349Z,8.28
2018-07-27T03:00:13.434Z,6.70
2018-07-27T03:02:42.532Z,8.03
2018-07-27T03:05:11.782Z,9.23
2018-07-27T03:07:40.721Z,8.00
2018-07-27T03:10:09.819Z,8.73
2018-07-27T03:12:38.673Z,9.10
2018-07-27T03:15:08.013Z,8.65
2018-07-27T03:17:37.445Z,8.23
2018-07-27T03:20:07.392Z,8.25
2018-07-27T03:22:36.568Z,9.13
2018-07-27T03:25:05.889Z,8.90
2018-07-27T03:27:35.133Z,9.15
2018-07-27T03:30:04.234Z,9.88
2018-07-27T03:32:33.325Z,10.40
2018-07-27T03:35:02.427Z,10.23
2018-07-27T03:37:31.510Z,9.65
2018-07-27T03:40:00.929Z,9.53
2018-07-27T03:42:30.120Z,9.05
2018-07-27T03:44:59.224Z,9.58
2018-07-27T03:47:28.305Z,10.00
2018-07-27T03:49:57.396Z,9.25
2018-07-27T03:52:26.497Z,9.10
2018-07-27T03:54:55.597Z,9.35
2018-07-27T03:57:25.012Z,10.30
2018-07-27T03:59:54.213Z,9.60
2018-07-27T04:02:23.371Z,11.08
2018-07-27T04:04:52.393Z,10.28
2018-07-27T04:07:21.520Z,10.90
2018-07-27T04:09:50.580Z,9.80
2018-07-27T04:12:23.420Z,10.00
2018-07-27T04:14:53.255Z,9.00
2018-07-27T04:17:22.365Z,9.03
2018-07-27T04:19:52.653Z,10.28
2018-07-27T04:22:22.273Z,9.63
2018-07-27T04:24:51.978Z,9.25
2018-07-27T04:27:21.065Z,8.95
2018-07-27T04:29:50.308Z,9.50
2018-07-27T04:32:19.725Z,9.30
2018-07-27T04:34:48.905Z,10.78
2018-07-27T04:37:18.009Z,10.43
2018-07-27T04:39:47.099Z,9.83
2018-07-27T04:42:16.209Z,10.38
2018-07-27T04:44:45.705Z,9.23
2018-07-27T04:47:14.805Z,8.83
2018-07-27T04:49:43.929Z,7.87
2018-07-27T04:52:12.989Z,8.20
2018-07-27T04:54:42.294Z,8.75
2018-07-27T04:57:11.171Z,9.20
2018-07-27T04:59:40.281Z,8.53
2018-07-27T05:02:09.372Z,10.30
2018-07-27T05:04:38.472Z,8.38
2018-07-27T05:07:07.833Z,7.80
2018-07-27T05:09:37.072Z,8.63
2018-07-27T05:12:06.157Z,9.30
2018-07-27T05:14:35.265Z,8.55
2018-07-27T05:17:04.074Z,7.50
2018-07-27T05:19:33.446Z,7.70
2018-07-27T05:22:02.284Z,7.28
2018-07-27T05:24:31.644Z,7.65
2018-07-27T05:27:01.103Z,8.08
2018-07-27T05:29:30.265Z,7.10
2018-07-27T05:31:59.333Z,6.72
2018-07-27T05:34:28.499Z,7.15
2018-07-27T05:36:57.710Z,6.72
2018-07-27T05:39:26.629Z,7.45
2018-07-27T05:41:55.708Z,7.17
2018-07-27T05:44:24.947Z,8.38
2018-07-27T05:46:54.269Z,7.80
2018-07-27T05:49:23.421Z,7.40
2018-07-27T05:51:52.873Z,6.90
2018-07-27T05:54:22.014Z,7.60
2018-07-27T05:56:51.117Z,7.12
2018-07-27T05:59:20.218Z,7.62
2018-07-27T06:01:49.310Z,7.53
2018-07-27T06:04:18.021Z,6.95
2018-07-27T06:06:46.822Z,6.37
2018-07-27T06:09:15.777Z,6.62
2018-07-27T06:11:44.861Z,6.67
2018-07-27T06:14:13.969Z,7.00
2018-07-27T06:16:43.060Z,6.35
2018-07-27T06:19:12.150Z,6.95
2018-07-27T06:21:41.617Z,6.40
2018-07-27T06:24:11.135Z,6.90
2018-07-27T06:26:40.265Z,6.00
2018-07-27T06:29:09.062Z,6.92
2018-07-27T06:31:38.414Z,6.70
2018-07-27T06:34:07.557Z,6.45
2018-07-27T06:36:36.652Z,7.10
2018-07-27T06:39:07.473Z,6.78
2018-07-27T06:41:36.480Z,6.22
2018-07-27T06:44:05.575Z,5.15
2018-07-27T06:46:34.669Z,7.58
2018-07-27T06:49:03.753Z,5.83
2018-07-27T06:51:32.855Z,5.83
2018-07-27T06:54:01.961Z,5.87
2018-07-27T06:56:31.370Z,6.45
2018-07-27T06:59:00.563Z,5.78
2018-07-27T07:01:29.657Z,6.25
2018-07-27T07:03:58.741Z,5.53
2018-07-27T07:06:27.849Z,6.50
2018-07-27T07:08:56.527Z,6.17
2018-07-27T07:11:25.627Z,6.57
2018-07-27T07:13:54.769Z,6.50
2018-07-27T07:16:23.813Z,6.60
2018-07-27T07:18:52.917Z,6.67
2018-07-27T07:21:22.013Z,6.30
2018-07-27T07:23:51.468Z,7.20
2018-07-27T07:26:20.613Z,6.63
2018-07-27T07:28:50.046Z,6.00
2018-07-27T07:31:20.021Z,6.33
2018-07-27T07:33:49.493Z,6.60
2018-07-27T07:36:18.993Z,6.53
2018-07-27T07:38:48.497Z,6.00
2018-07-27T07:41:17.976Z,7.20
2018-07-27T07:43:47.514Z,6.20
2018-07-27T07:46:17.017Z,6.20
2018-07-27T07:48:46.415Z,6.00
2018-07-27T07:51:15.665Z,6.70
2018-07-27T07:53:44.919Z,7.70
2018-07-27T07:56:14.216Z,7.30
2018-07-27T07:58:43.397Z,6.10
2018-07-27T08:01:12.817Z,6.20
2018-07-27T08:03:41.966Z,6.40
2018-07-27T08:06:11.387Z,7.37
2018-07-27T08:08:40.930Z,7.50
2018-07-27T08:11:10.100Z,7.67
2018-07-27T08:13:38.882Z,6.13
2018-07-27T08:16:07.841Z,7.43
2018-07-27T08:18:36.937Z,7.37
2018-07-27T08:21:06.041Z,7.90
2018-07-27T08:23:35.181Z,7.80
2018-07-27T08:26:41.089Z,7.10
2018-07-27T08:29:11.068Z,7.30
2018-07-27T08:31:41.747Z,7.43
2018-07-27T08:34:11.276Z,7.73
2018-07-27T08:36:40.349Z,7.90
2018-07-27T08:39:09.713Z,7.20
2018-07-27T08:41:38.941Z,6.80
2018-07-27T08:44:08.501Z,7.03
2018-07-27T08:46:37.613Z,7.60
2018-07-27T08:49:06.249Z,6.67
2018-07-27T08:51:35.653Z,6.63
2018-07-27T08:54:04.428Z,7.70
2018-07-27T08:56:33.526Z,6.73
2018-07-27T08:59:02.803Z,6.73
2018-07-27T09:01:31.718Z,5.90
2018-07-27T09:04:00.847Z,6.20
2018-07-27T09:06:29.906Z,7.43
2018-07-27T09:08:59.040Z,6.77
2018-07-27T09:11:28.096Z,7.23
2018-07-27T09:13:57.196Z,6.47
2018-07-27T09:16:26.623Z,7.33
2018-07-27T09:18:55.797Z,8.10
2018-07-27T09:21:24.906Z,6.03
2018-07-27T09:23:54.345Z,5.80
2018-07-27T09:26:23.853Z,5.07
2018-07-27T09:28:53.316Z,5.07
2018-07-27T09:31:22.505Z,3.80
2018-07-27T09:33:51.597Z,4.17
2018-07-27T09:36:20.697Z,5.10
2018-07-27T09:38:49.807Z,4.47
2018-07-27T09:41:18.897Z,5.50
2018-07-27T09:43:47.984Z,5.50
2018-07-27T09:46:17.081Z,6.07
2018-07-27T09:48:51.009Z,5.60
2018-07-27T09:51:20.186Z,6.33
2018-07-27T09:53:49.285Z,6.33
2018-07-27T09:56:18.149Z,5.90
2018-07-27T09:58:47.064Z,5.70
2018-07-27T10:01:22.256Z,5.00
2018-07-27T10:03:51.860Z,5.47
2018-07-27T10:06:20.929Z,5.27
2018-07-27T10:08:49.716Z,4.87
2018-07-27T10:11:19.048Z,4.63
2018-07-27T10:13:48.189Z,4.50
2018-07-27T10:16:17.289Z,5.00
2018-07-27T10:18:46.425Z,4.40
2018-07-27T10:21:15.477Z,4.50
2018-07-27T10:23:44.577Z,4.50
2018-07-27T10:26:13.668Z,4.53
2018-07-27T10:28:42.765Z,4.30
2018-07-27T10:31:11.866Z,4.00
2018-07-27T10:33:41.317Z,4.73
2018-07-27T10:36:10.468Z,3.50
2018-07-27T10:38:39.613Z,4.03
2018-07-27T10:41:08.653Z,4.07
2018-07-27T10:43:38.011Z,3.47
2018-07-27T10:46:07.613Z,3.77
2018-07-27T10:48:36.785Z,3.57
2018-07-27T10:51:05.853Z,3.93
2018-07-27T10:53:35.313Z,4.00
2018-07-27T10:56:04.457Z,3.90
2018-07-27T10:58:33.553Z,4.60
2018-07-27T11:01:02.650Z,4.33
2018-07-27T11:03:31.745Z,4.17
2018-07-27T11:06:00.721Z,4.07
2018-07-27T11:08:29.941Z,3.77
2018-07-27T11:10:59.429Z,4.10
2018-07-27T11:13:28.536Z,3.60
2018-07-27T11:15:57.629Z,3.87
2018-07-27T11:18:26.729Z,4.40
2018-07-27T11:20:55.825Z,3.57
2018-07-27T11:23:25.244Z,4.07
2018-07-27T11:25:54.429Z,3.90
2018-07-27T11:28:23.521Z,2.77
2018-07-27T11:30:52.627Z,2.70
2018-07-27T11:33:22.069Z,2.93
2018-07-27T11:35:51.261Z,2.73
2018-07-27T11:38:20.319Z,2.70
2018-07-27T11:40:49.412Z,2.70
2018-07-27T11:43:18.505Z,3.07
2018-07-27T11:45:47.601Z,2.80
2018-07-27T11:48:16.961Z,2.73
2018-07-27T11:50:46.201Z,2.70
2018-07-27T11:53:15.011Z,2.70
2018-07-27T11:55:43.985Z,2.23
2018-07-27T11:58:13.076Z,2.17
2018-07-27T12:00:42.181Z,2.13
2018-07-27T12:03:11.629Z,2.30
2018-07-27T12:05:40.997Z,1.97
2018-07-27T12:08:09.873Z,1.60
2018-07-27T12:10:38.969Z,1.67
2018-07-27T12:13:08.061Z,1.37
2018-07-27T12:15:37.156Z,1.07
2018-07-27T12:18:06.255Z,1.20
2018-07-27T12:20:35.851Z,1.90
2018-07-27T12:23:04.901Z,1.10
2018-07-27T12:25:33.949Z,1.10
2018-07-27T12:28:03.651Z,1.33
2018-07-27T12:30:32.402Z,1.30
2018-07-27T12:33:01.239Z,1.00
2018-07-27T12:35:30.333Z,0.70
2018-07-27T12:37:59.425Z,0.70
2018-07-27T12:40:28.777Z,0.90
2018-07-27T12:42:58.035Z,1.07
2018-07-27T12:45:27.121Z,0.73
2018-07-27T12:47:56.223Z,0.70
2018-07-27T12:50:25.321Z,0.77
2018-07-27T12:52:54.417Z,0.80
2018-07-27T12:55:23.513Z,0.70
2018-07-27T12:57:52.660Z,0.80
2018-07-27T13:00:21.702Z,0.40
2018-07-27T13:02:50.510Z,0.60
2018-07-27T13:05:19.342Z,0.73
2018-07-27T13:07:48.937Z,0.73
2018-07-27T13:10:18.082Z,0.40
2018-07-27T13:12:47.177Z,0.50
2018-07-27T13:15:16.686Z,0.50
2018-07-27T13:17:45.777Z,0.63
2018-07-27T13:20:15.144Z,0.60
2018-07-27T13:22:44.381Z,0.40
2018-07-27T13:25:13.487Z,0.60
2018-07-27T13:27:42.570Z,0.60
2018-07-27T13:30:11.877Z,0.40
2018-07-27T13:32:40.766Z,0.47
2018-07-27T13:35:09.905Z,0.70
2018-07-27T13:37:38.981Z,0.60
2018-07-27T13:40:08.382Z,0.50
2018-07-27T13:42:37.852Z,0.70
2018-07-27T13:45:07.379Z,0.60
2018-07-27T13:47:36.749Z,0.70
2018-07-27T13:50:06.023Z,0.90
2018-07-27T13:52:35.169Z,0.77
2018-07-27T13:55:04.621Z,0.60
2018-07-27T13:57:33.780Z,0.60
2018-07-27T14:00:02.866Z,0.53
2018-07-27T14:02:31.756Z,0.90
2018-07-27T14:05:00.649Z,0.90
2018-07-27T14:07:30.141Z,0.87
2018-07-27T14:09:59.250Z,1.70
2018-07-27T14:12:28.481Z,0.90
2018-07-27T14:14:56.993Z,1.13
2018-07-27T14:17:25.849Z,1.20
2018-07-27T14:19:55.210Z,1.23
2018-07-27T14:22:24.675Z,0.87
2018-07-27T14:24:53.825Z,1.10
2018-07-27T14:27:22.918Z,0.60
2018-07-27T14:29:52.075Z,0.80
2018-07-27T14:32:21.109Z,0.70
2018-07-27T14:34:50.205Z,0.87
2018-07-27T14:37:19.301Z,0.63
2018-07-27T14:39:48.401Z,0.80
2018-07-27T14:42:17.497Z,0.87
2018-07-27T14:44:47.406Z,0.80
2018-07-27T14:47:16.530Z,0.50
2018-07-27T14:49:45.847Z,0.70
2018-07-27T14:52:15.114Z,0.67
2018-07-27T14:54:44.610Z,0.60
2018-07-27T14:57:13.279Z,0.70
2018-07-27T14:59:42.394Z,0.60
2018-07-27T15:02:11.485Z,0.43
2018-07-27T15:04:41.358Z,0.97
2018-07-27T15:07:10.504Z,0.50
2018-07-27T15:09:39.949Z,0.90
2018-07-27T15:12:09.102Z,0.77
2018-07-27T15:14:38.198Z,0.53
2018-07-27T15:17:07.299Z,0.60
2018-07-27T15:19:36.385Z,0.80
2018-07-27T15:22:05.194Z,0.57
2018-07-27T15:24:34.525Z,0.57
2018-07-27T15:27:03.673Z,0.73
2018-07-27T15:29:33.091Z,1.00
2018-07-27T15:32:02.629Z,0.60
2018-07-27T15:34:31.778Z,0.60
2018-07-27T15:37:00.874Z,1.10
2018-07-27T15:39:29.761Z,0.60
2018-07-27T15:41:58.688Z,0.60
2018-07-27T15:44:27.750Z,0.50
2018-07-27T15:46:56.849Z,0.73
2018-07-27T15:49:25.911Z,0.50
2018-07-27T15:51:55.038Z,0.60
2018-07-27T15:54:24.182Z,0.60
2018-07-27T15:56:53.229Z,0.60
2018-07-27T15:59:22.325Z,0.90
2018-07-27T16:01:51.421Z,0.97
2018-07-27T16:04:20.527Z,1.30
2018-07-27T16:06:50.346Z,1.53
2018-07-27T16:09:19.527Z,1.60
2018-07-27T16:11:48.625Z,1.60
2018-07-27T16:14:17.718Z,1.90
2018-07-27T16:16:46.821Z,2.77
2018-07-27T16:19:15.945Z,2.40
2018-07-27T16:21:45.385Z,2.50
2018-07-27T16:24:14.872Z,2.63
2018-07-27T16:26:43.966Z,2.80
2018-07-27T16:29:13.109Z,3.10
2018-07-27T16:31:42.534Z,2.43
2018-07-27T16:34:12.078Z,3.20
2018-07-27T16:36:41.985Z,3.40
2018-07-27T16:39:11.399Z,2.60
2018-07-27T16:41:40.968Z,2.40
2018-07-27T16:44:10.468Z,3.27
2018-07-27T16:46:40.011Z,2.97
2018-07-27T16:49:08.868Z,3.67
2018-07-27T16:51:37.843Z,3.27
2018-07-27T16:54:07.137Z,3.20
2018-07-27T16:56:36.089Z,3.50
2018-07-27T16:59:05.485Z,3.40
2018-07-27T17:01:34.485Z,3.43
2018-07-27T17:04:03.577Z,3.60
2018-07-27T17:06:33.628Z,3.33
2018-07-27T17:09:02.849Z,3.90
2018-07-27T17:11:31.837Z,3.40
2018-07-27T17:14:00.674Z,3.47
2018-07-27T17:16:29.619Z,3.87
2018-07-27T17:18:58.713Z,3.10
2018-07-27T17:21:28.036Z,3.30
2018-07-27T17:23:56.901Z,3.63
2018-07-27T17:26:26.002Z,3.13
2018-07-27T17:28:55.457Z,3.70
2018-07-27T17:31:24.605Z,3.27
2018-07-27T17:33:53.863Z,3.57
2018-07-27T17:36:22.541Z,3.80
2018-07-27T17:38:51.483Z,4.07
2018-07-27T17:41:20.573Z,3.60
2018-07-27T17:43:50.030Z,3.10
2018-07-27T17:46:19.181Z,3.40
2018-07-27T17:48:48.586Z,3.80
2018-07-27T17:51:17.997Z,3.33
2018-07-27T17:53:46.869Z,3.83
2018-07-27T17:56:16.223Z,4.07
2018-07-27T17:58:45.477Z,4.03
2018-07-27T18:01:14.285Z,3.93
2018-07-27T18:03:43.302Z,3.80
2018-07-27T18:06:12.353Z,3.77
2018-07-27T18:08:41.453Z,3.60
2018-07-27T18:11:10.398Z,3.50
2018-07-27T18:13:39.585Z,3.03
2018-07-27T18:16:09.089Z,3.20
2018-07-27T18:18:37.935Z,3.17
2018-07-27T18:21:06.985Z,2.97
2018-07-27T18:23:36.386Z,3.00
2018-07-27T18:26:06.014Z,3.00
2018-07-27T18:28:35.058Z,3.43
2018-07-27T18:31:04.129Z,4.00
2018-07-27T18:33:33.270Z,3.87
2018-07-27T18:36:02.684Z,4.20
2018-07-27T18:38:31.827Z,5.03
2018-07-27T18:41:00.925Z,4.20
2018-07-27T18:43:30.015Z,4.10
2018-07-27T18:45:59.114Z,4.43
2018-07-27T18:48:28.569Z,4.73
2018-07-27T18:50:57.898Z,4.50
2018-07-27T18:53:26.806Z,4.60
2018-07-27T18:55:55.911Z,4.63
2018-07-27T18:58:24.853Z,4.97
2018-07-27T19:00:54.097Z,5.40
2018-07-27T19:03:23.254Z,5.23
2018-07-27T19:05:52.291Z,5.90
2018-07-27T19:08:21.705Z,5.17
2018-07-27T19:10:50.894Z,4.50
2018-07-27T19:13:19.981Z,5.00
2018-07-27T19:15:48.844Z,4.30
2018-07-27T19:18:17.749Z,6.20
2018-07-27T19:20:46.867Z,5.50
2018-07-27T19:23:15.971Z,5.10
2018-07-27T19:25:45.191Z,5.20
2018-07-27T19:28:14.155Z,5.13
2018-07-27T19:30:43.248Z,5.80
2018-07-27T19:33:12.697Z,4.83
2018-07-27T19:35:42.613Z,4.83
2018-07-27T19:38:11.757Z,5.90
2018-07-27T19:40:40.859Z,5.13
2018-07-27T19:43:10.280Z,5.63
2018-07-27T19:45:39.309Z,5.33
2018-07-27T19:48:08.809Z,5.40
2018-07-27T19:50:38.049Z,6.20
2018-07-27T19:53:07.510Z,5.13
2018-07-27T19:55:37.017Z,5.57
2018-07-27T19:58:06.169Z,6.90
2018-07-27T20:00:36.438Z,6.00
2018-07-27T20:03:05.590Z,7.10
2018-07-27T20:05:34.683Z,6.33
2018-07-27T20:08:03.773Z,7.03
2018-07-27T20:10:32.882Z,6.80
2018-07-27T20:13:02.047Z,6.90
2018-07-27T20:15:31.062Z,7.10
2018-07-27T20:18:00.162Z,6.30
2018-07-27T20:20:29.782Z,6.50
2018-07-27T20:22:58.962Z,7.63
2018-07-27T20:25:27.854Z,6.70
2018-07-27T20:27:56.949Z,6.90
2018-07-27T20:30:26.201Z,7.20
2018-07-27T20:32:55.141Z,6.28
2018-07-27T20:35:24.221Z,6.80
2018-07-27T20:37:53.339Z,7.23
2018-07-27T20:40:22.433Z,6.60
2018-07-27T20:42:51.273Z,7.10
2018-07-27T20:45:19.761Z,7.12
2018-07-27T20:47:49.139Z,7.50
2018-07-27T20:50:18.393Z,6.42
2018-07-27T20:52:47.691Z,6.37
2018-07-27T20:55:16.601Z,6.78
2018-07-27T20:57:45.681Z,7.12
2018-07-27T21:00:15.211Z,6.97
2018-07-27T21:02:44.958Z,6.42
2018-07-27T21:05:15.343Z,6.50
2018-07-27T21:07:44.244Z,7.55
2018-07-27T21:10:13.689Z,6.50
2018-07-27T21:12:43.193Z,6.50
2018-07-27T21:15:12.225Z,6.35
2018-07-27T21:17:41.186Z,8.83
2018-07-27T21:20:10.481Z,7.40
2018-07-27T21:22:39.829Z,7.22
2018-07-27T21:25:09.377Z,7.05
2018-07-27T21:27:38.529Z,7.17
2018-07-27T21:30:07.622Z,6.87
2018-07-27T21:32:36.706Z,7.42
2018-07-27T21:35:05.801Z,6.90
2018-07-27T21:37:34.910Z,6.53
2018-07-27T21:40:04.322Z,6.80
2018-07-27T21:42:33.907Z,6.90
2018-07-27T21:45:03.014Z,6.75
2018-07-27T21:47:32.103Z,6.45
2018-07-27T21:50:00.926Z,7.85
2018-07-27T21:52:30.251Z,7.20
2018-07-27T21:54:59.449Z,6.83
2018-07-27T21:57:28.596Z,7.40
2018-07-27T21:59:57.949Z,6.70
2018-07-27T22:02:27.086Z,7.40
2018-07-27T22:04:56.209Z,7.08
2018-07-27T22:07:25.643Z,6.95
2018-07-27T22:09:54.795Z,7.58
2018-07-27T22:12:23.878Z,6.65
2018-07-27T22:14:52.727Z,6.83
2018-07-27T22:17:22.030Z,7.50
2018-07-27T22:19:50.889Z,6.87
2018-07-27T22:22:20.261Z,7.30
2018-07-27T22:24:49.365Z,6.65
2018-07-27T22:27:18.458Z,7.05
2018-07-27T22:29:47.558Z,5.87
2018-07-27T22:32:16.979Z,6.47
2018-07-27T22:34:46.157Z,7.30
2018-07-27T22:37:15.664Z,6.42
2018-07-27T22:39:44.750Z,6.53
2018-07-27T22:42:13.565Z,6.03
2018-07-27T22:44:42.538Z,6.22
2018-07-27T22:47:11.646Z,6.03
2018-07-27T22:49:41.096Z,6.55
2018-07-27T22:52:10.238Z,6.00
2018-07-27T22:54:39.321Z,5.72
2018-07-27T22:57:08.434Z,5.83
2018-07-27T22:59:37.882Z,5.70
2018-07-27T23:02:06.781Z,5.60
2018-07-27T23:04:35.717Z,5.75
2018-07-27T23:07:04.862Z,4.92
2018-07-27T23:09:33.898Z,5.83
2018-07-27T23:12:03.362Z,6.40
2018-07-27T23:14:32.871Z,5.90
2018-07-27T23:17:02.017Z,6.05
2018-07-27T23:19:31.114Z,5.75
2018-07-27T23:22:00.209Z,5.70
2018-07-27T23:24:29.146Z,5.85
2018-07-27T23:26:58.429Z,5.75
2018-07-27T23:29:27.496Z,5.83
2018-07-27T23:31:56.595Z,5.78
2018-07-27T23:34:26.050Z,6.75
2018-07-27T23:36:55.203Z,6.20
2018-07-27T23:39:24.286Z,5.42
2018-07-27T23:41:53.697Z,6.65
2018-07-27T23:44:22.886Z,6.15
2018-07-27T23:46:51.986Z,7.10
2018-07-27T23:49:20.788Z,5.42
2018-07-27T23:51:49.761Z,6.15
2018-07-27T23:54:18.863Z,6.10
2018-07-27T23:56:47.960Z,5.35
2018-07-27T23:59:17.097Z,5.92
